Tiempo atmosférico en la estación meteorológica de Campos, Salines Llevant, Illes Balears (3 m.)



Fecha
DESCASC
Temp. máxima en grados centígrados (hora)
DESCASC
Temp. mínima en grados centígrados (hora)
DESCASC
Temp. media en grados centígrados
DESCASC
Racha de viento máxima en m/sg (hora)
DESCASC
Velocidad máxima media en intervalos de 10 minutos(hora)
DESCASC
Precipitaciones diarias en mm
DESCASC
Precipitaciones de 00:00 a 06:00 en mm
DESCASC
Precipitaciones de 06:00 a 12:00 en mm
DESCASC
Precipitaciones de 12:00 a 18:00 en mm
DESCASC
Precipitaciones de 18:00 a 24:00 en mm
DESCASC
31-05-2020 24.8 (12:20) 12.8 (05:20) 18.8 13.61 (16:40) 7.78 (14:50) 0 0 0 0 0
30-05-2020 26 (16:20) 13.5 (03:10) 19.8 8.89 (14:40) 5.28 (11:30) 0 0 0 0 0
29-05-2020 24.7 (15:20) 11.4 (05:50) 18.1 8.89 (13:40) 5.56 (15:40) 0 0 0 0 0
28-05-2020 25.4 (13:50) 16.1 (00:00) 20.8 10.56 (10:40) 6.94 (12:30) 0 0 0 0 0
27-05-2020 26 (14:40) 11.8 (00:00) 18.9 11.94 (16:40) 7.5 (16:10) 0 0 0 0 0
26-05-2020 28.1 (14:20) 15.8 (00:00) 22 12.22 (13:40) 6.94 (18:00) 0 0 0 0 0
25-05-2020 26.1 (13:50) 14.2 (00:00) 20.2 10.28 (16:40) 5.83 (16:50) 0 0 0 0 0
24-05-2020 26.6 (16:10) 17.5 (00:00) 22.1 10 (09:40) 6.94 (10:20) 0 0 0 0 0
23-05-2020 27.9 (14:40) 13.1 (00:00) 20.5 9.17 (18:40) 5.83 (18:30) 0 0 0 0 0
22-05-2020 27.7 (14:40) 12.1 (00:00) 19.9 6.94 (14:50) 5.83 (15:00) 0 0 0 0 0
21-05-2020 26.3 (13:30) 11.9 (00:00) 19.1 7.22 (14:20) 4.72 (15:40) 0 0 0 0 0
20-05-2020 26 (17:20) 12.6 (00:00) 19.3 7.5 (12:40) 4.72 (11:20) 0 0 0 0 0
19-05-2020 22.8 (13:30) 12.4 (00:00) 17.6 11.11 (10:40) 7.5 (17:10) 0 0 0 0 0
18-05-2020 21 (13:50) 16.2 (00:00) 18.6 9.72 (09:40) 6.11 (11:20) 2.8 0 0 2.8 0
17-05-2020 23 (12:20) 11.6 (00:00) 17.3 7.22 (18:00) 5.56 (18:00) 0 0 0 0 0
16-05-2020 23.2 (13:20) 16.5 (00:00) 19.9 15.28 (14:10) 10.83 (14:10) 0 0 0 0 0
15-05-2020 22.9 (14:20) 15.7 (00:00) 19.3 11.67 (00:10) 6.39 (00:10) 0 0 0 0 0
14-05-2020 20.3 (11:20) 12.6 (00:00) 16.4 16.94 (22:40) 10.56 (17:40) 5 0 0.2 4.8 0
13-05-2020 21.8 (17:00) 15.2 (00:00) 18.5 13.33 (11:40) 9.72 (09:10) 0 0 0 0 0
12-05-2020 25.1 (14:40) 14.2 (00:00) 19.7 13.06 (17:50) 8.06 (18:00) 0.4 0 0 0 0.4
11-05-2020 22.1 (13:30) 18.3 (00:00) 20.2 14.44 (10:40) 10.83 (11:00) 0 0 0 0 0
10-05-2020 20.3 (17:30) 17.1 (00:00) 18.7 13.89 (13:40) 7.5 (13:40) 18.6 10.4 5.4 2.8 0
09-05-2020 23.8 (15:50) 17.3 (00:00) 20.5 6.94 (08:20) 4.44 (14:20) 0 0 0 0 0
08-05-2020 23.7 (13:50) 16.4 (00:00) 20.1 13.33 (14:40) 7.5 (15:20) 0 0 0 0 0
07-05-2020 29 (15:20) 11 (00:00) 20 12.5 (16:30) 8.33 (16:30) 0 0 0 0 0
06-05-2020 26.6 (11:50) 14.3 (00:00) 20.5 7.78 (13:40) 5.28 (13:40) 0 0 0 0 0
05-05-2020 29.1 (14:30) 15.2 (00:00) 22.2 7.22 (15:40) 5 (16:10) 0 0 0 0 0
04-05-2020 26 (13:20) 11.8 (00:00) 18.9 9.72 (15:30) 5.83 (15:30) 0 0 0 0 0
03-05-2020 26.8 (15:00) 13 (00:00) 19.9 8.89 (15:40) 5.83 (17:30) 0 0 0 0 0

Gráficas

Temp. máximas Temp. mínimas Temp. medias Precipitaciones Rachas de viento máximas Velocidades máximas media en intervalos de 10 minutos

Datos horarios

Fecha y hora oficial Temperatura (ºC) Velocidad del viento (km/h) Dirección del viento Racha (km/h) Dirección de racha Precipitación (mm) Presión (hPa) Tendencia (hPa) Humedad (%)
2020-06-01 23:00:00 19.7 3 Nordeste 6 Nordeste 0 -- -- 83
2020-06-01 22:00:00 20.6 4 Nordeste 21 Este 0 -- -- 80
2020-06-01 21:00:00 21.6 13 Sudeste 30 Sudeste 0 -- -- 73
2020-06-01 20:00:00 23.7 17 Sudeste 30 Sudeste 0 -- -- 59
2020-06-01 19:00:00 24.6 17 Sudeste 30 Sudeste 0 -- -- 56
2020-06-01 18:00:00 25.3 22 Sudeste 33 Sudeste 0 -- -- 51
2020-06-01 17:00:00 25.7 21 Sudeste 36 Sudeste 0 -- -- 50
2020-06-01 16:00:00 26.2 24 Sudeste 36 Sudeste 0 -- -- 46
2020-06-01 15:00:00 26 23 Sudeste 35 Sudeste 0 -- -- 45
2020-06-01 14:00:00 25 17 Este 30 Sudeste 0 -- -- 50
2020-06-01 13:00:00 25.3 21 Sudeste 27 Este 0 -- -- 48
2020-06-01 12:00:00 26 19 Este 28 Este 0 -- -- 47
2020-06-01 11:00:00 24.5 15 Este 25 Este 0 -- -- 56
2020-06-01 10:00:00 22.5 9 Este 14 Este 0 -- -- 68
2020-06-01 09:00:00 20.9 8 Norte 14 Norte 0 -- -- 81
2020-06-01 08:00:00 18.2 9 Nordeste 14 Nordeste 0 -- -- 91
2020-06-01 07:00:00 14.9 0 Calma 6 Nordeste 0 -- -- 93
2020-06-01 06:00:00 15.5 0 Calma 11 Nordeste 0 -- -- 91
2020-06-01 05:00:00 16.7 9 Nordeste 13 Nordeste 0 -- -- 92
2020-06-01 04:00:00 16.4 7 Nordeste 14 Nordeste 0 -- -- 92
2020-06-01 03:00:00 16.4 8 Nordeste 15 Nordeste 0 -- -- 91
2020-06-01 02:00:00 17.3 6 Nordeste 14 Nordeste 0 -- -- 89
2020-06-01 01:00:00 18.4 9 Nordeste 13 Este 0 -- -- 87
2020-06-01 00:00:00 18.7 7 Nordeste 12 Nordeste 0 -- -- 84
2020-05-31 23:00:00 18.8 9 Norte 12 Norte 0 -- -- 84
2020-05-31 22:00:00 20 3 Este 18 Este 0 -- -- 80
2020-05-31 21:00:00 21 11 Este 23 Este 0 -- -- 75
2020-05-31 20:00:00 22.5 19 Este 28 Este 0 -- -- 66
2020-05-31 19:00:00 23.1 21 Este 33 Sudeste 0 -- -- 64
2020-05-31 18:00:00 23.4 24 Sudeste 35 Sudeste 0 -- -- 59
2020-05-31 17:00:00 23.6 26 Sudeste 49 Sudeste 0 -- -- 57
2020-05-31 16:00:00 24.1 26 Sudeste 39 Sudeste 0 -- -- 56
2020-05-31 15:00:00 24.2 26 Sudeste 37 Sudeste 0 -- -- 53
2020-05-31 14:00:00 24 26 Sudeste 36 Sudeste 0 -- -- 55
2020-05-31 13:00:00 24.3 25 Sudeste 35 Sudeste 0 -- -- 59
2020-05-31 12:00:00 24.7 16 Este 29 Sudeste 0 -- -- 59
2020-05-31 11:00:00 23.3 17 Este 28 Este 0 -- -- 66
2020-05-31 10:00:00 22.7 15 Este 23 Este 0 -- -- 71
2020-05-31 09:00:00 21.4 14 Sudeste 18 Sudeste 0 -- -- 76
2020-05-31 08:00:00 17.6 0 Calma 6 Noroeste 0 -- -- 90
2020-05-31 07:00:00 13.5 0 Calma 3 Nordeste 0 -- -- 93
2020-05-31 06:00:00 13 0 Calma 3 Sudoeste 0 -- -- 93
2020-05-31 05:00:00 13.1 0 Calma 3 Norte 0 -- -- 92
2020-05-31 04:00:00 13.5 0 Calma 3 Sudeste 0 -- -- 91
2020-05-31 03:00:00 14 0 Calma 3 Este 0 -- -- 90
2020-05-31 02:00:00 14.6 0 Calma 3 Nordeste 0 -- -- 88
2020-05-31 01:00:00 16.1 0 Calma 5 Este 0 -- -- 87
2020-05-31 00:00:00 15.9 4 Sudeste 5 Sudeste 0 -- -- 86
2020-05-30 23:00:00 17.1 3 Sudeste 4 Sudeste 0 -- -- 83
2020-05-30 22:00:00 19.3 3 Sudeste 9 Sudeste 0 -- -- 76
2020-05-30 21:00:00 21.5 8 Sudeste 13 Sur 0 -- -- 68
2020-05-30 20:00:00 23.1 10 Sur 18 Sudoeste 0 -- -- 63
2020-05-30 19:00:00 23.7 12 Sur 20 Sur 0 -- -- 55
2020-05-30 18:00:00 24.2 13 Sur 32 Sur 0 -- -- 51
2020-05-30 17:00:00 25.3 12 Sudeste 32 Sudeste 0 -- -- 50
2020-05-30 16:00:00 25.4 12 Sur 25 Sur 0 -- -- 47
2020-05-30 15:00:00 25.7 13 Sur 32 Sudeste 0 -- -- 50
2020-05-30 14:00:00 24.9 17 Sudeste 31 Sudeste 0 -- -- 53
2020-05-30 13:00:00 24.8 14 Sudeste 28 Sudeste 0 -- -- 55
2020-05-30 12:00:00 24.3 18 Sudeste 31 Sudeste 0 -- -- 61
2020-05-30 11:00:00 24.8 5 Sudeste 12 Oeste 0 -- -- 54
2020-05-30 10:00:00 23.3 3 Nordeste 15 Nordeste 0 -- -- 56
2020-05-30 09:00:00 20.3 10 Norte 15 Nordeste 0 -- -- 77
2020-05-30 08:00:00 17.4 8 Nordeste 13 Nordeste 0 -- -- 85
2020-05-30 07:00:00 15.3 6 Nordeste 18 Nordeste 0 -- -- 89
2020-05-30 06:00:00 15.7 11 Nordeste 17 Nordeste 0 -- -- 89
2020-05-30 05:00:00 14.6 6 Norte 8 Nordeste 0 -- -- 90
2020-05-30 04:00:00 14.3 3 Norte 6 Norte 0 -- -- 91
2020-05-30 03:00:00 13.6 0 Calma 5 Este 0 -- -- 89
2020-05-30 02:00:00 15.7 5 Nordeste 10 Nordeste 0 -- -- 89
2020-05-30 01:00:00 15.4 0 Calma 7 Nordeste 0 -- -- 86
2020-05-30 00:00:00 16.1 2 Este 8 Nordeste 0 -- -- 82
2020-05-29 23:00:00 17.9 5 Este 8 Nordeste 0 -- -- 78
2020-05-29 22:00:00 19.4 4 Nordeste 15 Sudeste 0 -- -- 76
2020-05-29 21:00:00 20.5 9 Sudeste 19 Sudeste 0 -- -- 71
2020-05-29 20:00:00 22.1 13 Sudeste 22 Sudeste 0 -- -- 62
2020-05-29 19:00:00 23 14 Sudeste 26 Sudeste 0 -- -- 57
2020-05-29 18:00:00 23.5 15 Sudeste 27 Sudeste 0 -- -- 51
2020-05-29 17:00:00 24.3 17 Sudeste 31 Sudeste 0 -- -- 47
2020-05-29 16:00:00 24.5 19 Sudeste 31 Sudeste 0 -- -- 49
2020-05-29 15:00:00 24.3 19 Sudeste 28 Sudeste 0 -- -- 57
2020-05-29 14:00:00 24.1 15 Sudeste 32 Sudeste 0 -- -- 56
2020-05-29 13:00:00 24.3 15 Sudeste 27 Sudeste 0 -- -- 54
2020-05-29 12:00:00 24.3 15 Sudeste 24 Sudeste 0 -- -- 55
2020-05-29 11:00:00 24.3 6 Sudeste 14 Sudeste 0 -- -- 61
2020-05-29 10:00:00 22.4 6 Sudeste 12 Este 0 -- -- 70
2020-05-29 09:00:00 19 5 Noroeste 8 Norte 0 -- -- 86
2020-05-29 08:00:00 15.6 2 Noroeste 4 Noroeste 0 -- -- 93
2020-05-29 07:00:00 12.1 0 Calma 3 Norte 0 -- -- 95
2020-05-29 06:00:00 11.5 2 Oeste 3 Oeste 0 -- -- 94
2020-05-29 05:00:00 12.1 0 Calma 4 Norte 0 -- -- 92
2020-05-29 04:00:00 12.9 0 Calma 3 Norte 0 -- -- 92
2020-05-29 03:00:00 13.3 0 Calma 4 Sudeste 0 -- -- 91
2020-05-29 02:00:00 14.7 0 Calma 4 Norte 0 -- -- 90
2020-05-29 01:00:00 16.8 0 Calma 12 Nordeste 0 -- -- 88
2020-05-29 00:00:00 17.8 6 Nordeste 11 Este 0 -- -- 87
2020-05-28 23:00:00 18.7 8 Este 17 Este 0 -- -- 84
2020-05-28 22:00:00 19.5 6 Este 15 Este 0 -- -- 81
2020-05-28 21:00:00 20.8 8 Este 22 Sudeste 0 -- -- 74
2020-05-28 20:00:00 22.6 15 Este 30 Sudeste 0 -- -- 66
2020-05-28 19:00:00 23.6 18 Sudeste 27 Este 0 -- -- 63
2020-05-28 18:00:00 24.5 15 Este 32 Este 0 -- -- 58
2020-05-28 17:00:00 24.6 19 Este 32 Sudeste 0 -- -- 53
2020-05-28 16:00:00 24.8 21 Sudeste 33 Sudeste 0 -- -- 51
2020-05-28 15:00:00 24.9 22 Sudeste 35 Sudeste 0 -- -- 52
2020-05-28 14:00:00 25.1 20 Sudeste 33 Sudeste 0 -- -- 50
2020-05-28 13:00:00 24.9 22 Este 38 Este 0 -- -- 52
2020-05-28 12:00:00 24 23 Este 33 Este 0 -- -- 60
2020-05-28 11:00:00 23.6 20 Este 38 Este 0 -- -- 63
2020-05-28 10:00:00 22.7 16 Este 31 Este 0 -- -- 68
2020-05-28 09:00:00 21.1 16 Este 27 Este 0 -- -- 78
2020-05-28 08:00:00 17.9 8 Nordeste 12 Norte 0 -- -- 93
2020-05-28 07:00:00 16.6 8 Nordeste 15 Nordeste 0 -- -- 95
2020-05-28 06:00:00 16.4 10 Nordeste 14 Nordeste 0 -- -- 96
2020-05-28 05:00:00 16.1 7 Nordeste 13 Nordeste 0 -- -- 95
2020-05-28 04:00:00 16.1 6 Nordeste 9 Norte 0 -- -- 94
2020-05-28 03:00:00 16.6 6 Norte 9 Norte 0 -- -- 94
2020-05-28 02:00:00 16.7 5 Norte 7 Norte 0 -- -- 92
2020-05-28 01:00:00 17.2 5 Norte 7 Norte 0 -- -- 92
2020-05-28 00:00:00 17.9 5 Nordeste 8 Nordeste 0 -- -- 91
2020-05-27 23:00:00 19.1 0 Calma 11 Este 0 -- -- 88
2020-05-27 22:00:00 20 9 Este 19 Este 0 -- -- 84
2020-05-27 21:00:00 21.2 15 Este 32 Nordeste 0 -- -- 76
2020-05-27 20:00:00 22.7 18 Este 35 Este 0 -- -- 72
2020-05-27 19:00:00 23.9 20 Este 34 Este 0 -- -- 66
2020-05-27 18:00:00 25.2 22 Este 33 Este 0 -- -- 56
2020-05-27 17:00:00 25.8 22 Este 43 Este 0 -- -- 51
2020-05-27 16:00:00 25.5 25 Este 38 Este 0 -- -- 59
2020-05-27 15:00:00 25.8 20 Este 33 Este 0 -- -- 55
2020-05-27 14:00:00 25.7 19 Este 33 Este 0 -- -- 49
2020-05-27 13:00:00 24.9 21 Este 37 Sudeste 0 -- -- 53
2020-05-27 12:00:00 24.3 15 Este 27 Este 0 -- -- 58
2020-05-27 11:00:00 22.9 11 Este 26 Sudeste 0 -- -- 66
2020-05-27 10:00:00 22.5 8 Nordeste 22 Nordeste 0 -- -- 68
2020-05-27 09:00:00 20.8 17 Nordeste 28 Nordeste 0 -- -- 71
2020-05-27 08:00:00 17.1 3 Norte 4 Noroeste 0 -- -- 80
2020-05-27 07:00:00 12.8 2 Sudeste 4 Este 0 -- -- 92
2020-05-27 06:00:00 12.5 0 Calma 5 Norte 0 -- -- 88
2020-05-27 05:00:00 12.3 0 Calma 3 Este 0 -- -- 90
2020-05-27 04:00:00 13 0 Calma 3 Norte 0 -- -- 88
2020-05-27 03:00:00 14 0 Calma 4 Norte 0 -- -- 86
2020-05-27 02:00:00 15 0 Calma 5 Norte 0 -- -- 85
2020-05-27 01:00:00 15.5 2 Noroeste 3 Noroeste 0 -- -- 82
2020-05-27 00:00:00 16.2 2 Sudoeste 4 Sudeste 0 -- -- 77
2020-05-26 23:00:00 18.3 0 Calma 9 Nordeste 0 -- -- 71
2020-05-26 22:00:00 20.8 7 Nordeste 19 Este 0 -- -- 65
2020-05-26 21:00:00 22.8 11 Este 27 Este 0 -- -- 57
2020-05-26 20:00:00 25.2 18 Este 29 Este 0 -- -- 49
2020-05-26 19:00:00 26.7 18 Este 37 Este 0 -- -- 45
2020-05-26 18:00:00 27.1 25 Este 37 Este 0 -- -- 40
2020-05-26 17:00:00 27.5 21 Este 35 Este 0 -- -- 41
2020-05-26 16:00:00 27.7 24 Este 35 Este 0 -- -- 40
2020-05-26 15:00:00 27.9 23 Este 35 Este 0 -- -- 37
2020-05-26 14:00:00 27.8 19 Este 44 Este 0 -- -- 39
2020-05-26 13:00:00 27.2 20 Este 33 Este 0 -- -- 46
2020-05-26 12:00:00 27.2 17 Este 28 Este 0 -- -- 48
2020-05-26 11:00:00 25.5 8 Nordeste 20 Nordeste 0 -- -- 58
2020-05-26 10:00:00 22.7 10 Nordeste 18 Nordeste 0 -- -- 70
2020-05-26 09:00:00 20.5 13 Norte 21 Norte 0 -- -- 81
2020-05-26 08:00:00 18.3 13 Nordeste 17 Nordeste 0 -- -- 91
2020-05-26 07:00:00 16.5 7 Nordeste 11 Norte 0 -- -- 94
2020-05-26 06:00:00 16.3 7 Norte 15 Nordeste 0 -- -- 93
2020-05-26 05:00:00 16.5 11 Nordeste 17 Nordeste 0 -- -- 92
2020-05-26 04:00:00 16.5 8 Nordeste 13 Nordeste 0 -- -- 90
2020-05-26 03:00:00 16.3 3 Nordeste 9 Nordeste 0 -- -- 86
2020-05-26 02:00:00 17.3 5 Nordeste 11 Nordeste 0 -- -- 82
2020-05-26 01:00:00 17.9 6 Nordeste 17 Nordeste 0 -- -- 81
2020-05-26 00:00:00 18.3 8 Norte 14 Norte 0 -- -- 76
2020-05-25 23:00:00 19 8 Nordeste 16 Norte 0 -- -- 71
2020-05-25 22:00:00 20.2 9 Nordeste 15 Norte 0 -- -- 65
2020-05-25 21:00:00 22.3 7 Nordeste 20 Nordeste 0 -- -- 54
2020-05-25 20:00:00 24 15 Nordeste 27 Nordeste 0 -- -- 47
2020-05-25 19:00:00 25.7 14 Nordeste 23 Nordeste 0 -- -- 44
2020-05-25 18:00:00 25.8 10 Nordeste 25 Este 0 -- -- 43
2020-05-25 17:00:00 24.9 19 Nordeste 37 Nordeste 0 -- -- 45
2020-05-25 16:00:00 24.8 20 Norte 29 Norte 0 -- -- 51
2020-05-25 15:00:00 25.6 13 Norte 23 Norte 0 -- -- 43
2020-05-25 14:00:00 26.1 15 Norte 26 Noroeste 0 -- -- 42
2020-05-25 13:00:00 25.3 16 Norte 36 Nordeste 0 -- -- 43
2020-05-25 12:00:00 24.5 17 Nordeste 32 Nordeste 0 -- -- 44
2020-05-25 11:00:00 23.8 18 Nordeste 29 Nordeste 0 -- -- 53
2020-05-25 10:00:00 22.2 17 Norte 31 Norte 0 -- -- 63
2020-05-25 09:00:00 20.1 9 Norte 15 Nordeste 0 -- -- 69
2020-05-25 08:00:00 17.3 10 Norte 13 Norte 0 -- -- 72
2020-05-25 07:00:00 14.4 2 Norte 6 Norte 0 -- -- 82
2020-05-25 06:00:00 14.7 2 Norte 5 Noroeste 0 -- -- 81
2020-05-25 05:00:00 15.7 2 Noroeste 10 Nordeste 0 -- -- 76
2020-05-25 04:00:00 16.7 7 Nordeste 12 Nordeste 0 -- -- 70
2020-05-25 03:00:00 16.5 8 Nordeste 16 Nordeste 0 -- -- 74
2020-05-25 02:00:00 17.4 9 Nordeste 14 Nordeste 0 -- -- 71
2020-05-25 01:00:00 17.3 7 Nordeste 14 Nordeste 0 -- -- 73
2020-05-25 00:00:00 17.5 8 Nordeste 12 Nordeste 0 -- -- 69
2020-05-24 23:00:00 18.4 3 Nordeste 13 Nordeste 0 -- -- 63
2020-05-24 22:00:00 19.6 8 Nordeste 13 Nordeste 0 -- -- 56
2020-05-24 21:00:00 21.6 5 Nordeste 20 Nordeste 0 -- -- 41
2020-05-24 20:00:00 23.3 14 Nordeste 31 Nordeste 0 -- -- 37
2020-05-24 19:00:00 24.2 17 Nordeste 26 Nordeste 0 -- -- 35
2020-05-24 18:00:00 25.4 19 Nordeste 32 Nordeste 0 -- -- 33
2020-05-24 17:00:00 26.2 19 Nordeste 31 Este 0 -- -- 32
2020-05-24 16:00:00 26.4 16 Nordeste 32 Nordeste 0 -- -- 31
2020-05-24 15:00:00 25.8 20 Nordeste 33 Nordeste 0 -- -- 36
2020-05-24 14:00:00 26 14 Nordeste 32 Nordeste 0 -- -- 45
2020-05-24 13:00:00 25 19 Nordeste 35 Norte 0 -- -- 51
2020-05-24 12:00:00 24.6 19 Nordeste 34 Norte 0 -- -- 49
2020-05-24 11:00:00 23.2 21 Nordeste 36 Nordeste 0 -- -- 55
2020-05-24 10:00:00 21.7 21 Nordeste 36 Nordeste 0 -- -- 64
2020-05-24 09:00:00 20.3 18 Nordeste 31 Nordeste 0 -- -- 72
2020-05-24 08:00:00 18.8 14 Nordeste 25 Norte 0 -- -- 82
2020-05-24 07:00:00 17.9 11 Nordeste 23 Nordeste 0 -- -- 88
2020-05-24 06:00:00 17.8 10 Nordeste 18 Nordeste 0 -- -- 89
2020-05-24 05:00:00 18.1 9 Nordeste 15 Nordeste 0 -- -- 89
2020-05-24 04:00:00 18.4 8 Nordeste 13 Nordeste 0 -- -- 91
2020-05-24 03:00:00 18.5 8 Norte 14 Nordeste 0 -- -- 87
2020-05-24 02:00:00 18.4 8 Norte 16 Nordeste 0 -- -- 86
2020-05-24 01:00:00 18.5 8 Nordeste 14 Norte 0 -- -- 85
2020-05-24 00:00:00 18.2 7 Norte 13 Nordeste 0 -- -- 83
2020-05-23 23:00:00 18.9 8 Nordeste 12 Este 0 -- -- 76
2020-05-23 22:00:00 20.3 4 Este 11 Este 0 -- -- 73
2020-05-23 21:00:00 22.2 6 Este 22 Sudeste 0 -- -- 66
2020-05-23 20:00:00 24.8 11 Sudeste 22 Sudeste 0 -- -- 52
2020-05-23 19:00:00 25.5 17 Sudeste 33 Sudeste 0 -- -- 51
2020-05-23 18:00:00 26.2 17 Sudeste 27 Sudeste 0 -- -- 52
2020-05-23 17:00:00 27.1 17 Sudeste 25 Sudeste 0 -- -- 51
2020-05-23 16:00:00 27.5 16 Sudeste 28 Sudeste 0 -- -- 47
2020-05-23 15:00:00 27.9 15 Sudeste 25 Sudeste 0 -- -- 42
2020-05-23 14:00:00 27.2 17 Sudeste 30 Sur 0 -- -- 45
2020-05-23 13:00:00 27.3 15 Sudeste 23 Sudeste 0 -- -- 47
2020-05-23 12:00:00 27.2 10 Este 18 Este 0 -- -- 50
2020-05-23 11:00:00 25.2 7 Sudeste 21 Sudeste 0 -- -- 57
2020-05-23 10:00:00 23.5 9 Sur 15 Sudeste 0 -- -- 75
2020-05-23 09:00:00 21.8 8 Sudeste 16 Sudeste 0 -- -- 85
2020-05-23 08:00:00 17.8 0 Calma 2 Este 0 -- -- 89
2020-05-23 07:00:00 13.8 0 Calma 3 Norte 0 -- -- 96
2020-05-23 06:00:00 14.7 0 Calma 4 Norte 0 -- -- 95
2020-05-23 05:00:00 13.4 0 Calma 4 Sudeste 0 -- -- 94
2020-05-23 04:00:00 13.4 0 Calma 3 Noroeste 0 -- -- 92
2020-05-23 03:00:00 14.6 0 Calma 2 Noroeste 0 -- -- 91
2020-05-23 02:00:00 15.8 0 Calma 5 Sudeste 0 -- -- 91
2020-05-23 01:00:00 17.7 5 Norte 6 Norte 0 -- -- 88
2020-05-23 00:00:00 17.7 2 Sudeste 8 Sudeste 0 -- -- 88
2020-05-22 23:00:00 17.6 4 Sudeste 5 Sudeste 0 -- -- 79
2020-05-22 22:00:00 19.7 3 Sudeste 4 Sudeste 0 -- -- 73
2020-05-22 21:00:00 24 2 Sur 9 Sudoeste 0 -- -- 54
2020-05-22 20:00:00 25.9 6 Sudoeste 14 Oeste 0 -- -- 54
2020-05-22 19:00:00 27 9 Sudoeste 17 Oeste 0 -- -- 49
2020-05-22 18:00:00 26.7 12 Oeste 21 Oeste 0 -- -- 51
2020-05-22 17:00:00 27 14 Oeste 22 Oeste 0 -- -- 49
2020-05-22 16:00:00 26.6 17 Oeste 25 Oeste 0 -- -- 47
2020-05-22 15:00:00 26.6 21 Oeste 25 Oeste 0 -- -- 48
2020-05-22 14:00:00 26.7 17 Oeste 24 Sudoeste 0 -- -- 52
2020-05-22 13:00:00 26.3 15 Oeste 23 Oeste 0 -- -- 46
2020-05-22 12:00:00 26 15 Oeste 20 Oeste 0 -- -- 49
2020-05-22 11:00:00 26.1 10 Oeste 13 Oeste 0 -- -- 49
2020-05-22 10:00:00 24.3 3 Oeste 5 Oeste 0 -- -- 64
2020-05-22 09:00:00 19.8 2 Noroeste 4 Oeste 0 -- -- 84
2020-05-22 08:00:00 15.9 2 Norte 4 Norte 0 -- -- 91
2020-05-22 07:00:00 12.4 3 Sudeste 4 Sudeste 0 -- -- 95
2020-05-22 06:00:00 12.3 0 Calma 2 Sudeste 0 -- -- 95
2020-05-22 05:00:00 13.1 0 Calma 4 Norte 0 -- -- 94
2020-05-22 04:00:00 13.7 0 Calma 3 Norte 0 -- -- 95
2020-05-22 03:00:00 14.4 0 Calma 3 Sur 0 -- -- 95
2020-05-22 02:00:00 15.1 0 Calma 3 Nordeste 0 -- -- 93
2020-05-22 01:00:00 16.6 3 Norte 4 Nordeste 0 -- -- 91
2020-05-22 00:00:00 17.1 2 Sudoeste 5 Sudeste 0 -- -- 91
2020-05-21 23:00:00 17.4 2 Sur 5 Sudeste 0 -- -- 85
2020-05-21 22:00:00 19.1 4 Sudeste 9 Sudoeste 0 -- -- 76
2020-05-21 21:00:00 22.2 5 Sudoeste 12 Sudoeste 0 -- -- 72
2020-05-21 20:00:00 23.9 8 Sudoeste 14 Sudoeste 0 -- -- 61
2020-05-21 19:00:00 24.4 8 Sudoeste 19 Oeste 0 -- -- 53
2020-05-21 18:00:00 25.2 12 Sudoeste 24 Sudoeste 0 -- -- 51
2020-05-21 17:00:00 24.7 13 Sudoeste 25 Sudoeste 0 -- -- 61
2020-05-21 16:00:00 24.9 14 Sudoeste 25 Oeste 0 -- -- 63
2020-05-21 15:00:00 25.6 16 Sudoeste 26 Oeste 0 -- -- 55
2020-05-21 14:00:00 25.9 14 Sudoeste 21 Sudoeste 0 -- -- 53
2020-05-21 13:00:00 25.9 12 Sudoeste 19 Sudoeste 0 -- -- 50
2020-05-21 12:00:00 25.5 12 Oeste 19 Sudoeste 0 -- -- 52
2020-05-21 11:00:00 24.9 14 Oeste 19 Oeste 0 -- -- 62
2020-05-21 10:00:00 23.4 0 Calma 4 Oeste 0 -- -- 64
2020-05-21 09:00:00 19.1 0 Calma 3 Oeste 0 -- -- 85
2020-05-21 08:00:00 15.3 0 Calma 5 Norte 0 -- -- 93
2020-05-21 07:00:00 12.5 2 Este 4 Sur 0 -- -- 97
2020-05-21 06:00:00 12.1 0 Calma 2 Sudeste 0 -- -- 95
2020-05-21 05:00:00 12.5 0 Calma 3 Sudeste 0 -- -- 95
2020-05-21 04:00:00 12.9 0 Calma 4 Norte 0 -- -- 94
2020-05-21 03:00:00 13.9 0 Calma 3 Nordeste 0 -- -- 94
2020-05-21 02:00:00 14.6 0 Calma 3 Sudeste 0 -- -- 94
2020-05-21 01:00:00 15.3 0 Calma 4 Sudeste 0 -- -- 93
2020-05-21 00:00:00 16.5 0 Calma 6 Sudeste 0 -- -- 93
2020-05-20 23:00:00 16.8 3 Sudeste 4 Sudeste 0 -- -- 89
2020-05-20 22:00:00 18.5 4 Sudeste 6 Sudoeste 0 -- -- 84
2020-05-20 21:00:00 21.7 5 Sudoeste 12 Sudoeste 0 -- -- 77
2020-05-20 20:00:00 23.7 6 Sudoeste 14 Oeste 0 -- -- 63
2020-05-20 19:00:00 24.2 12 Oeste 19 Oeste 0 -- -- 62
2020-05-20 18:00:00 25.4 10 Sudoeste 19 Oeste 0 -- -- 63
2020-05-20 17:00:00 25.7 12 Sudoeste 18 Oeste 0 -- -- 56
2020-05-20 16:00:00 25.2 14 Oeste 18 Sudoeste 0 -- -- 55
2020-05-20 15:00:00 24.6 13 Oeste 19 Sudoeste 0 -- -- 60
2020-05-20 14:00:00 23.6 15 Sudoeste 23 Sudoeste 0 -- -- 67
2020-05-20 13:00:00 23.1 15 Sudoeste 27 Oeste 0 -- -- 73
2020-05-20 12:00:00 22.5 17 Oeste 27 Oeste 0 -- -- 81
2020-05-20 11:00:00 23.6 10 Oeste 14 Sudoeste 0 -- -- 75
2020-05-20 10:00:00 21.6 3 Oeste 10 Oeste 0 -- -- 88
2020-05-20 09:00:00 18.9 0 Calma 3 Oeste 0 -- -- 98
2020-05-20 08:00:00 16.6 0 Calma 3 Sudeste 0 -- -- 99
2020-05-20 07:00:00 14.2 0 Calma 5 Norte 0 -- -- 98
2020-05-20 06:00:00 12.6 3 Sudeste 3 Sudeste 0 -- -- 98
2020-05-20 05:00:00 12.9 0 Calma 3 Sur 0 -- -- 97
2020-05-20 04:00:00 14.4 0 Calma 7 Nordeste 0 -- -- 96
2020-05-20 03:00:00 15.1 3 Norte 6 Sur 0 -- -- 97
2020-05-20 02:00:00 15.8 3 Sudeste 8 Sudeste 0 -- -- 97
2020-05-20 01:00:00 17.2 6 Nordeste 13 Norte 0 -- -- 97
2020-05-20 00:00:00 15.8 3 Sur 4 Sur 0 -- -- 94
2020-05-19 23:00:00 17.3 0 Calma 7 Noroeste 0 -- -- 93
2020-05-19 22:00:00 19.1 3 Sudeste 13 Sudoeste 0 -- -- 92
2020-05-19 21:00:00 20.3 7 Oeste 22 Oeste 0 -- -- 88
2020-05-19 20:00:00 21.5 17 Oeste 28 Oeste 0 -- -- 83
2020-05-19 19:00:00 21.9 20 Oeste 32 Oeste 0 -- -- 79
2020-05-19 18:00:00 22 24 Oeste 35 Oeste 0 -- -- 80
2020-05-19 17:00:00 22.3 22 Oeste 39 Oeste 0 -- -- 77
2020-05-19 16:00:00 22.2 24 Oeste 37 Oeste 0 -- -- 79
2020-05-19 15:00:00 22.3 25 Oeste 36 Sudoeste 0 -- -- 77
2020-05-19 14:00:00 22.6 23 Oeste 36 Oeste 0 -- -- 77
2020-05-19 13:00:00 22 24 Oeste 38 Sudoeste 0 -- -- 80
2020-05-19 12:00:00 21.8 18 Sudoeste 32 Sudoeste 0 -- -- 83
2020-05-19 11:00:00 21 17 Oeste 40 Sudoeste 0 -- -- 85
2020-05-19 10:00:00 20.9 17 Oeste 22 Sudoeste 0 -- -- 84
2020-05-19 09:00:00 19.9 7 Noroeste 10 Noroeste 0 -- -- 80
2020-05-19 08:00:00 18.2 6 Oeste 15 Oeste 0 -- -- 96
2020-05-19 07:00:00 14 2 Noroeste 6 Noroeste 0 -- -- 99
2020-05-19 06:00:00 12.4 3 Sudeste 4 Sudeste 0 -- -- 97
2020-05-19 05:00:00 13.1 0 Calma 5 Noroeste 0 -- -- 96
2020-05-19 04:00:00 14 0 Calma 5 Norte 0 -- -- 96
2020-05-19 03:00:00 15.1 2 Norte 6 Sudoeste 0 -- -- 96
2020-05-19 02:00:00 15.8 3 Sudeste 5 Nordeste 0 -- -- 95
2020-05-19 01:00:00 17 3 Nordeste 15 Oeste 0 -- -- 94
2020-05-19 00:00:00 18.3 11 Oeste 17 Oeste 0 -- -- 94
2020-05-18 23:00:00 16.6 4 Sudoeste 9 Sudoeste 0 -- -- 96
2020-05-18 22:00:00 17.5 4 Sur 7 Sur 0 -- -- 91
2020-05-18 21:00:00 19.1 4 Sur 7 Sudeste 0 -- -- 88
2020-05-18 20:00:00 19.5 5 Sudoeste 13 Sudoeste 0 -- -- 86
2020-05-18 19:00:00 20.5 6 Sudoeste 12 Sudoeste 0 -- -- 82
2020-05-18 18:00:00 19.9 5 Sur 18 Sudeste 0 -- -- 82
2020-05-18 17:00:00 18.1 14 Sudeste 20 Sur 2.4 -- -- 88
2020-05-18 16:00:00 19.2 10 Sudoeste 21 Oeste 0.4 -- -- 88
2020-05-18 15:00:00 19.9 16 Oeste 26 Oeste 0 -- -- 84
2020-05-18 14:00:00 20.9 12 Oeste 23 Oeste 0 -- -- 78
2020-05-18 13:00:00 19.7 11 Oeste 25 Oeste 0 -- -- 82
2020-05-18 12:00:00 20.1 18 Oeste 29 Oeste 0 -- -- 82
2020-05-18 11:00:00 20.2 20 Oeste 29 Oeste 0 -- -- 79
2020-05-18 10:00:00 20.2 17 Oeste 35 Oeste 0 -- -- 76
2020-05-18 09:00:00 19.9 16 Oeste 24 Oeste 0 -- -- 78
2020-05-18 08:00:00 19.1 10 Oeste 17 Oeste 0 -- -- 81
2020-05-18 07:00:00 18 8 Oeste 12 Oeste 0 -- -- 86
2020-05-18 06:00:00 17.9 6 Oeste 10 Oeste 0 -- -- 88
2020-05-18 05:00:00 18 8 Oeste 11 Oeste 0 -- -- 87
2020-05-18 04:00:00 18 8 Oeste 13 Noroeste 0 -- -- 86
2020-05-18 03:00:00 18.1 11 Oeste 18 Oeste 0 -- -- 85
2020-05-18 02:00:00 18.4 10 Oeste 21 Oeste 0 -- -- 83
2020-05-18 01:00:00 18.4 16 Oeste 21 Oeste 0 -- -- 84
2020-05-18 00:00:00 17.5 9 Oeste 12 Oeste 0 -- -- 88
2020-05-17 23:00:00 17.7 5 Sudoeste 12 Sudoeste 0 -- -- 86
2020-05-17 22:00:00 17.9 7 Sudoeste 10 Sur 0 -- -- 83
2020-05-17 21:00:00 19 7 Sudoeste 12 Sudoeste 0 -- -- 79
2020-05-17 20:00:00 19.7 6 Sudoeste 17 Oeste 0 -- -- 78
2020-05-17 19:00:00 20.7 12 Oeste 24 Oeste 0 -- -- 69
2020-05-17 18:00:00 21.4 20 Oeste 26 Oeste 0 -- -- 71
2020-05-17 17:00:00 22.3 13 Sudoeste 21 Oeste 0 -- -- 60
2020-05-17 16:00:00 20.4 12 Sudoeste 25 Sudoeste 0 -- -- 73
2020-05-17 15:00:00 21.3 13 Sudoeste 22 Sudoeste 0 -- -- 69
2020-05-17 14:00:00 19.8 12 Sudoeste 23 Sudoeste 0 -- -- 73
2020-05-17 13:00:00 21.2 14 Sudeste 23 Nordeste 0 -- -- 67
2020-05-17 12:00:00 22.1 14 Norte 24 Norte 0 -- -- 55
2020-05-17 11:00:00 21.6 13 Nordeste 25 Nordeste 0 -- -- 62
2020-05-17 10:00:00 20.1 15 Norte 23 Norte 0 -- -- 70
2020-05-17 09:00:00 17.8 4 Noroeste 9 Norte 0 -- -- 82
2020-05-17 08:00:00 14.8 3 Norte 5 Nordeste 0 -- -- 94
2020-05-17 07:00:00 11.7 0 Calma 3 Sudeste 0 -- -- 96
2020-05-17 06:00:00 12.1 0 Calma 3 Noroeste 0 -- -- 95
2020-05-17 05:00:00 12.2 3 Sudeste 5 Sudeste 0 -- -- 95
2020-05-17 04:00:00 12.4 3 Sur 4 Sur 0 -- -- 94
2020-05-17 03:00:00 13 2 Este 6 Sudeste 0 -- -- 93
2020-05-17 02:00:00 14 3 Sudeste 6 Sur 0 -- -- 91
2020-05-17 01:00:00 15.9 2 Nordeste 8 Noroeste 0 -- -- 87
2020-05-17 00:00:00 16.7 4 Noroeste 9 Norte 0 -- -- 85
2020-05-16 23:00:00 16.8 6 Norte 23 Norte 0 -- -- 84
2020-05-16 22:00:00 17.8 10 Norte 27 Nordeste 0 -- -- 82
2020-05-16 21:00:00 18.3 20 Norte 34 Nordeste 0 -- -- 78
2020-05-16 20:00:00 19.3 24 Nordeste 36 Norte 0 -- -- 72
2020-05-16 19:00:00 19.9 27 Norte 47 Norte 0 -- -- 71
2020-05-16 18:00:00 21.1 32 Norte 47 Norte 0 -- -- 66
2020-05-16 17:00:00 22.5 33 Norte 48 Norte 0 -- -- 62
2020-05-16 16:00:00 22.5 28 Nordeste 54 Nordeste 0 -- -- 60
2020-05-16 15:00:00 22.2 32 Norte 55 Norte 0 -- -- 63
2020-05-16 14:00:00 22.7 34 Norte 51 Norte 0 -- -- 62
2020-05-16 13:00:00 22.8 32 Nordeste 47 Norte 0 -- -- 55
2020-05-16 12:00:00 22.9 22 Nordeste 43 Nordeste 0 -- -- 56
2020-05-16 11:00:00 20.9 29 Nordeste 44 Nordeste 0 -- -- 61
2020-05-16 10:00:00 20.4 19 Nordeste 30 Nordeste 0 -- -- 66
2020-05-16 09:00:00 18.8 21 Norte 39 Nordeste 0 -- -- 74
2020-05-16 08:00:00 17.8 22 Nordeste 36 Nordeste 0 -- -- 78
2020-05-16 07:00:00 17.7 17 Nordeste 41 Nordeste 0 -- -- 82
2020-05-16 06:00:00 17.5 19 Nordeste 37 Nordeste 0 -- -- 84
2020-05-16 05:00:00 17 17 Nordeste 30 Nordeste 0 -- -- 88
2020-05-16 04:00:00 16.9 21 Nordeste 33 Nordeste 0 -- -- 88
2020-05-16 03:00:00 16.9 19 Nordeste 31 Nordeste 0 -- -- 90
2020-05-16 02:00:00 17.4 17 Norte 25 Norte 0 -- -- 86
2020-05-16 01:00:00 17.6 20 Nordeste 29 Nordeste 0 -- -- 87
2020-05-16 00:00:00 18.1 15 Nordeste 24 Norte 0 -- -- 86
2020-05-15 23:00:00 18.2 9 Nordeste 23 Nordeste 0 -- -- 85
2020-05-15 22:00:00 18.6 13 Nordeste 27 Nordeste 0 -- -- 83
2020-05-15 21:00:00 18.8 8 Este 15 Nordeste 0 -- -- 75
2020-05-15 20:00:00 19.6 10 Nordeste 28 Este 0 -- -- 74
2020-05-15 19:00:00 20.3 21 Este 33 Este 0 -- -- 68
2020-05-15 18:00:00 21.2 16 Este 35 Este 0 -- -- 63
2020-05-15 17:00:00 21.5 14 Este 25 Sudeste 0 -- -- 63
2020-05-15 16:00:00 21.3 14 Sudeste 25 Sudeste 0 -- -- 69
2020-05-15 15:00:00 21.3 14 Sudeste 21 Sudeste 0 -- -- 66
2020-05-15 14:00:00 22.2 14 Sudeste 25 Sur 0 -- -- 64
2020-05-15 13:00:00 22 12 Oeste 17 Oeste 0 -- -- 73
2020-05-15 12:00:00 21.4 7 Oeste 12 Oeste 0 -- -- 73
2020-05-15 11:00:00 20.5 9 Oeste 19 Sudoeste 0 -- -- 76
2020-05-15 10:00:00 19.9 10 Oeste 15 Oeste 0 -- -- 80
2020-05-15 09:00:00 19.1 8 Sudoeste 18 Sudoeste 0 -- -- 84
2020-05-15 08:00:00 16.7 0 Calma 10 Sudoeste 0 -- -- 91
2020-05-15 07:00:00 17 6 Sudoeste 13 Sudoeste 0 -- -- 92
2020-05-15 06:00:00 16.7 7 Sudoeste 12 Oeste 0 -- -- 91
2020-05-15 05:00:00 17.4 7 Oeste 21 Sudoeste 0 -- -- 89
2020-05-15 04:00:00 17.5 14 Oeste 25 Oeste 0 -- -- 87
2020-05-15 03:00:00 17.7 20 Oeste 32 Sudoeste 0 -- -- 85
2020-05-15 02:00:00 17.8 21 Oeste 37 Sudoeste 0 -- -- 84
2020-05-15 01:00:00 17.8 20 Sudoeste 42 Oeste 0 -- -- 81
2020-05-15 00:00:00 18 25 Sudoeste 45 Oeste 0 -- -- 81
2020-05-14 23:00:00 18.2 29 Oeste 61 Sudoeste 0 -- -- 78
2020-05-14 22:00:00 18 26 Sudoeste 52 Oeste 0 -- -- 75
2020-05-14 21:00:00 18.2 34 Oeste 50 Oeste 0 -- -- 69
2020-05-14 20:00:00 18 24 Sudoeste 50 Sudoeste 0 -- -- 69
2020-05-14 19:00:00 18.6 29 Oeste 51 Oeste 0 -- -- 68
2020-05-14 18:00:00 18.7 32 Oeste 56 Oeste 0 -- -- 72
2020-05-14 17:00:00 18 28 Oeste 38 Oeste 0.2 -- -- 82
2020-05-14 16:00:00 17.8 10 Sudoeste 36 Sur 0 -- -- 80
2020-05-14 15:00:00 18.4 22 Sudoeste 36 Sur 0.2 -- -- 77
2020-05-14 14:00:00 17 11 Sudoeste 27 Sudoeste 1.2 -- -- 88
2020-05-14 13:00:00 16 9 Sudeste 16 Este 3.2 -- -- 90
2020-05-14 12:00:00 18.8 6 Sur 17 Sur 0.2 -- -- 72
2020-05-14 11:00:00 19.5 10 Sur 15 Sur 0 -- -- 70
2020-05-14 10:00:00 19 4 Este 12 Norte 0 -- -- 77
2020-05-14 09:00:00 17 10 Norte 15 Norte 0 -- -- 92
2020-05-14 08:00:00 14.9 0 Calma 4 Sudeste 0 -- -- 97
2020-05-14 07:00:00 12.7 2 Sudeste 6 Nordeste 0 -- -- 96
2020-05-14 06:00:00 13.2 2 Norte 8 Norte 0 -- -- 97
2020-05-14 05:00:00 13.3 3 Norte 8 Norte 0 -- -- 96
2020-05-14 04:00:00 13.8 3 Norte 6 Noroeste 0 -- -- 95
2020-05-14 03:00:00 13.2 0 Calma 6 Norte 0 -- -- 95
2020-05-14 02:00:00 13.7 3 Sudeste 6 Sudeste 0 -- -- 93
2020-05-14 01:00:00 14.6 4 Sudeste 6 Sudeste 0 -- -- 93
2020-05-14 00:00:00 15.2 4 Sudeste 7 Sudeste 0 -- -- 91
2020-05-13 23:00:00 16.5 3 Sudeste 9 Sudoeste 0 -- -- 88
2020-05-13 22:00:00 17.9 6 Sur 15 Sudoeste 0 -- -- 84
2020-05-13 21:00:00 18.7 7 Sudoeste 16 Sudoeste 0 -- -- 77
2020-05-13 20:00:00 20.1 8 Sudoeste 19 Sudoeste 0 -- -- 72
2020-05-13 19:00:00 20.8 12 Oeste 25 Oeste 0 -- -- 71
2020-05-13 18:00:00 21 18 Oeste 30 Oeste 0 -- -- 68
2020-05-13 17:00:00 21.8 20 Oeste 32 Oeste 0 -- -- 66
2020-05-13 16:00:00 21.5 23 Oeste 42 Oeste 0 -- -- 66
2020-05-13 15:00:00 21.4 20 Oeste 32 Oeste 0 -- -- 65
2020-05-13 14:00:00 21.2 22 Oeste 37 Oeste 0 -- -- 65
2020-05-13 13:00:00 20.9 30 Oeste 46 Oeste 0 -- -- 65
2020-05-13 12:00:00 20.6 30 Oeste 48 Oeste 0 -- -- 69
2020-05-13 11:00:00 19.9 35 Oeste 45 Oeste 0 -- -- 72
2020-05-13 10:00:00 19.6 33 Oeste 47 Oeste 0 -- -- 73
2020-05-13 09:00:00 19.2 30 Oeste 45 Oeste 0 -- -- 79
2020-05-13 08:00:00 18.6 29 Oeste 42 Oeste 0 -- -- 86
2020-05-13 07:00:00 18.4 27 Oeste 40 Sudoeste 0 -- -- 86
2020-05-13 06:00:00 18.5 23 Sudoeste 41 Sudoeste 0 -- -- 90
2020-05-13 05:00:00 18.7 26 Oeste 40 Sudoeste 0 -- -- 90
2020-05-13 04:00:00 18.8 18 Sudoeste 34 Sudoeste 0 -- -- 88
2020-05-13 03:00:00 18.5 12 Sudoeste 21 Sudoeste 0 -- -- 91
2020-05-13 02:00:00 17.7 0 Calma 8 Sudoeste 0 -- -- 91
2020-05-13 01:00:00 18 8 Nordeste 14 Nordeste 0 -- -- 91
2020-05-13 00:00:00 18 9 Nordeste 15 Nordeste 0 -- -- 91
2020-05-12 23:00:00 18.5 7 Nordeste 14 Oeste 0.4 -- -- 87
2020-05-12 22:00:00 19.8 10 Noroeste 30 Nordeste 0 -- -- 77
2020-05-12 21:00:00 19.8 12 Nordeste 26 Nordeste 0 -- -- 78
2020-05-12 20:00:00 20.5 15 Este 36 Este 0 -- -- 74
2020-05-12 19:00:00 22.1 20 Este 43 Este 0 -- -- 66
2020-05-12 18:00:00 23.1 29 Este 47 Este 0 -- -- 58
2020-05-12 17:00:00 24.8 22 Este 40 Este 0 -- -- 51
2020-05-12 16:00:00 24.4 24 Este 37 Este 0 -- -- 56
2020-05-12 15:00:00 24.9 21 Este 36 Este 0 -- -- 60
2020-05-12 14:00:00 24.6 18 Este 37 Sudeste 0 -- -- 66
2020-05-12 13:00:00 24.1 17 Este 27 Este 0 -- -- 70
2020-05-12 12:00:00 22.2 10 Sudoeste 15 Sur 0 -- -- 80
2020-05-12 11:00:00 22.2 4 Oeste 14 Sudoeste 0 -- -- 77
2020-05-12 10:00:00 20.9 10 Sudoeste 16 Oeste 0 -- -- 81
2020-05-12 09:00:00 19.9 9 Sudoeste 19 Sudoeste 0 -- -- 89
2020-05-12 08:00:00 18.6 5 Sudoeste 11 Sudeste 0 -- -- 97
2020-05-12 07:00:00 14.3 0 Calma 6 Sudeste 0 -- -- 96
2020-05-12 06:00:00 15.4 4 Sudeste 9 Norte 0 -- -- 94
2020-05-12 05:00:00 17.4 7 Sur 14 Oeste 0 -- -- 94
2020-05-12 04:00:00 17.9 8 Sudoeste 15 Sudoeste 0 -- -- 93
2020-05-12 03:00:00 18.3 4 Sudoeste 23 Oeste 0 -- -- 91
2020-05-12 02:00:00 18.3 10 Sudoeste 21 Sudoeste 0 -- -- 92
2020-05-12 01:00:00 18.2 5 Sudoeste 12 Oeste 0 -- -- 91
2020-05-12 00:00:00 18.3 8 Sur 16 Oeste 0 -- -- 90
2020-05-11 23:00:00 18.7 7 Sudoeste 22 Sudoeste 0 -- -- 88
2020-05-11 22:00:00 18.9 15 Sudoeste 27 Oeste 0 -- -- 86
2020-05-11 21:00:00 19.1 14 Sudoeste 39 Sudoeste 0 -- -- 83
2020-05-11 20:00:00 20.2 16 Sudoeste 38 Sudoeste 0 -- -- 80
2020-05-11 19:00:00 20.5 25 Sudoeste 44 Sudoeste 0 -- -- 80
2020-05-11 18:00:00 21.2 21 Sudoeste 45 Sudoeste 0 -- -- 78
2020-05-11 17:00:00 21.5 23 Sudoeste 43 Sudoeste 0 -- -- 79
2020-05-11 16:00:00 21.8 22 Sudoeste 42 Sudoeste 0 -- -- 79
2020-05-11 15:00:00 21.9 24 Sudoeste 42 Oeste 0 -- -- 76
2020-05-11 14:00:00 21.8 23 Sudoeste 41 Oeste 0 -- -- 71
2020-05-11 13:00:00 21.7 32 Oeste 51 Oeste 0 -- -- 67
2020-05-11 12:00:00 21.3 38 Oeste 51 Oeste 0 -- -- 66
2020-05-11 11:00:00 20.9 39 Oeste 52 Oeste 0 -- -- 67
2020-05-11 10:00:00 20.4 34 Oeste 51 Oeste 0 -- -- 69
2020-05-11 09:00:00 19.7 31 Oeste 50 Oeste 0 -- -- 71
2020-05-11 08:00:00 19.3 30 Oeste 47 Oeste 0 -- -- 71
2020-05-11 07:00:00 18.8 23 Oeste 52 Oeste 0 -- -- 74
2020-05-11 06:00:00 18.7 28 Oeste 44 Oeste 0 -- -- 73
2020-05-11 05:00:00 19 24 Oeste 35 Oeste 0 -- -- 75
2020-05-11 04:00:00 18.9 21 Oeste 32 Sudoeste 0 -- -- 79
2020-05-11 03:00:00 18.9 17 Sudoeste 32 Oeste 0 -- -- 83
2020-05-11 02:00:00 18.6 16 Sudoeste 32 Sudoeste 0 -- -- 89
2020-05-11 01:00:00 18.7 17 Sudoeste 33 Sudoeste 0 -- -- 87
2020-05-11 00:00:00 18.9 17 Sudoeste 35 Sudoeste 0 -- -- 84
2020-05-10 23:00:00 18.8 18 Sudoeste 44 Sudoeste 0 -- -- 85
2020-05-10 22:00:00 18.8 22 Sudoeste 45 Sudoeste 0 -- -- 84
2020-05-10 21:00:00 18.8 22 Sudoeste 47 Sudoeste 0 -- -- 83
2020-05-10 20:00:00 19.6 24 Sudoeste 44 Sudoeste 0 -- -- 83
2020-05-10 19:00:00 19.7 20 Sudoeste 41 Sudoeste 0 -- -- 77
2020-05-10 18:00:00 20.2 19 Sudoeste 33 Sudoeste 0 -- -- 69
2020-05-10 17:00:00 20 15 Sudoeste 31 Sudoeste 0 -- -- 72
2020-05-10 16:00:00 19.2 16 Sudoeste 31 Sudoeste 0 -- -- 80
2020-05-10 15:00:00 17.9 20 Sur 45 Sur 2.4 -- -- 89
2020-05-10 14:00:00 18.3 25 Sur 50 Sur 0 -- -- 83
2020-05-10 13:00:00 18 24 Sudeste 33 Sudeste 0.4 -- -- 92
2020-05-10 12:00:00 18.3 17 Sur 34 Sur 0.2 -- -- 87
2020-05-10 11:00:00 18.6 17 Sur 35 Sudoeste 0 -- -- 85
2020-05-10 10:00:00 18.9 13 Sur 18 Sur 0.6 -- -- 97
2020-05-10 09:00:00 18.1 10 Sur 18 Sudeste 0.8 -- -- 97
2020-05-10 08:00:00 17.8 4 Noroeste 29 Sudeste 1.2 -- -- 97
2020-05-10 07:00:00 17.4 15 Sudoeste 32 Este 2.6 -- -- 97
2020-05-10 06:00:00 17.4 19 Este 30 Este 5 -- -- 96
2020-05-10 05:00:00 18.1 9 Sudeste 18 Sur 3.8 -- -- 95
2020-05-10 04:00:00 18.6 5 Noroeste 20 Sur 1.6 -- -- 90
2020-05-10 03:00:00 18.8 3 Sudeste 8 Sudeste 0 -- -- 89
2020-05-10 02:00:00 19 5 Sudeste 14 Sudeste 0 -- -- 89
2020-05-10 01:00:00 19.4 8 Sudeste 13 Sudeste 0 -- -- 88
2020-05-10 00:00:00 19.5 8 Sudeste 14 Este 0 -- -- 87
2020-05-09 23:00:00 19.4 8 Sudeste 16 Este 0 -- -- 88
2020-05-09 22:00:00 19.8 6 Este 13 Sudeste 0 -- -- 86
2020-05-09 21:00:00 20 4 Este 10 Sudeste 0 -- -- 86
2020-05-09 20:00:00 20.6 5 Sudeste 13 Sur 0 -- -- 83
2020-05-09 19:00:00 21.1 8 Sudoeste 22 Sur 0 -- -- 81
2020-05-09 18:00:00 22.3 15 Sur 23 Sur 0 -- -- 76
2020-05-09 17:00:00 22.8 12 Sudoeste 19 Sudoeste 0 -- -- 75
2020-05-09 16:00:00 23.4 8 Oeste 14 Oeste 0 -- -- 73
2020-05-09 15:00:00 22.1 8 Norte 20 Oeste 0 -- -- 77
2020-05-09 14:00:00 20.4 7 Oeste 15 Oeste 0 -- -- 84
2020-05-09 13:00:00 20.4 4 Sur 10 Sur 0 -- -- 85
2020-05-09 12:00:00 19.9 5 Sur 15 Sudeste 0 -- -- 86
2020-05-09 11:00:00 19.3 8 Sudeste 23 Sur 0 -- -- 90
2020-05-09 10:00:00 19.6 8 Nordeste 20 Noroeste 0 -- -- 86
2020-05-09 09:00:00 19.3 11 Este 25 Este 0 -- -- 87
2020-05-09 08:00:00 17.6 8 Este 12 Nordeste 0 -- -- 92
2020-05-09 07:00:00 17.6 5 Norte 14 Nordeste 0 -- -- 91
2020-05-09 06:00:00 17.5 3 Oeste 9 Sudoeste 0 -- -- 92
2020-05-09 05:00:00 17.3 6 Nordeste 9 Nordeste 0 -- -- 92
2020-05-09 04:00:00 18.1 6 Nordeste 11 Nordeste 0 -- -- 89
2020-05-09 03:00:00 19.1 0 Calma 12 Nordeste 0 -- -- 87
2020-05-09 02:00:00 19 8 Nordeste 17 Sudeste 0 -- -- 88
2020-05-09 01:00:00 19 5 Este 17 Este 0 -- -- 89
2020-05-09 00:00:00 19 13 Este 20 Este 0 -- -- 87
2020-05-08 23:00:00 19 12 Este 30 Este 0 -- -- 87
2020-05-08 22:00:00 19.4 18 Este 29 Sudeste 0 -- -- 85
2020-05-08 21:00:00 19.7 15 Este 29 Este 0 -- -- 83
2020-05-08 20:00:00 20.1 19 Este 44 Este 0 -- -- 80
2020-05-08 19:00:00 21.5 25 Este 43 Este 0 -- -- 74
2020-05-08 18:00:00 22.3 20 Este 30 Este 0 -- -- 71
2020-05-08 17:00:00 22.5 18 Este 40 Este 0 -- -- 70
2020-05-08 16:00:00 22.3 19 Este 42 Este 0 -- -- 70
2020-05-08 15:00:00 23 24 Este 48 Este 0 -- -- 67
2020-05-08 14:00:00 23.7 25 Este 40 Sudeste 0 -- -- 63
2020-05-08 13:00:00 23.3 23 Este 39 Este 0 -- -- 62
2020-05-08 12:00:00 22.6 22 Este 35 Este 0 -- -- 65
2020-05-08 11:00:00 21.6 22 Este 36 Nordeste 0 -- -- 72
2020-05-08 10:00:00 21 22 Este 36 Este 0 -- -- 75
2020-05-08 09:00:00 20 18 Este 33 Este 0 -- -- 80
2020-05-08 08:00:00 18.8 12 Nordeste 20 Nordeste 0 -- -- 88
2020-05-08 07:00:00 17.7 8 Nordeste 18 Nordeste 0 -- -- 92
2020-05-08 06:00:00 17.7 8 Nordeste 18 Nordeste 0 -- -- 92
2020-05-08 05:00:00 16.9 8 Nordeste 15 Nordeste 0 -- -- 95
2020-05-08 04:00:00 16.4 8 Nordeste 11 Nordeste 0 -- -- 95
2020-05-08 03:00:00 16.6 6 Norte 13 Nordeste 0 -- -- 94
2020-05-08 02:00:00 17 8 Nordeste 13 Nordeste 0 -- -- 92
2020-05-08 01:00:00 17.5 8 Nordeste 14 Nordeste 0 -- -- 90
2020-05-08 00:00:00 18.4 10 Nordeste 23 Este 0 -- -- 88
2020-05-07 23:00:00 19 12 Nordeste 31 Este 0 -- -- 84
2020-05-07 22:00:00 19 15 Este 36 Este 0 -- -- 84
2020-05-07 21:00:00 19.1 15 Este 33 Este 0 -- -- 84
2020-05-07 20:00:00 20 16 Este 30 Este 0 -- -- 79
2020-05-07 19:00:00 21.3 19 Este 36 Nordeste 0 -- -- 76
2020-05-07 18:00:00 23.1 21 Este 42 Este 0 -- -- 72
2020-05-07 17:00:00 24.7 26 Este 45 Este 0 -- -- 65
2020-05-07 16:00:00 28.2 22 Este 36 Este 0 -- -- 38
2020-05-07 15:00:00 28.3 21 Nordeste 31 Nordeste 0 -- -- 40
2020-05-07 14:00:00 28.6 17 Este 33 Este 0 -- -- 41
2020-05-07 13:00:00 28.3 18 Este 37 Nordeste 0 -- -- 38
2020-05-07 12:00:00 27.3 16 Nordeste 32 Este 0 -- -- 40
2020-05-07 11:00:00 26.5 18 Nordeste 32 Nordeste 0 -- -- 42
2020-05-07 10:00:00 23.9 15 Nordeste 22 Nordeste 0 -- -- 55
2020-05-07 09:00:00 21 10 Nordeste 17 Nordeste 0 -- -- 70
2020-05-07 08:00:00 16.8 11 Nordeste 17 Nordeste 0 -- -- 86
2020-05-07 07:00:00 13.3 8 Nordeste 15 Nordeste 0 -- -- 97
2020-05-07 06:00:00 11.4 0 Calma 4 Sudeste 0 -- -- 95
2020-05-07 05:00:00 11.9 0 Calma 5 Norte 0 -- -- 95
2020-05-07 04:00:00 12.6 0 Calma 5 Norte 0 -- -- 95
2020-05-07 03:00:00 14.5 2 Norte 6 Norte 0 -- -- 95
2020-05-07 02:00:00 15 0 Calma 6 Norte 0 -- -- 94
2020-05-07 01:00:00 15.7 0 Calma 7 Oeste 0 -- -- 93
2020-05-07 00:00:00 16.3 3 Nordeste 4 Nordeste 0 -- -- 91
2020-05-06 23:00:00 17.7 0 Calma 4 Sudeste 0 -- -- 91
2020-05-06 22:00:00 18.8 0 Calma 4 Sudeste 0 -- -- 89
2020-05-06 21:00:00 20.5 0 Calma 6 Sudoeste 0 -- -- 87
2020-05-06 20:00:00 21.1 4 Sudoeste 10 Sudoeste 0 -- -- 84
2020-05-06 19:00:00 21.8 7 Sudoeste 14 Oeste 0 -- -- 81
2020-05-06 18:00:00 22.5 8 Sudoeste 18 Oeste 0 -- -- 78
2020-05-06 17:00:00 22.6 13 Oeste 23 Oeste 0 -- -- 77
2020-05-06 16:00:00 24.1 15 Sudoeste 23 Sur 0 -- -- 72
2020-05-06 15:00:00 24.6 15 Sudoeste 23 Sudoeste 0 -- -- 68
2020-05-06 14:00:00 24.6 13 Sudoeste 28 Oeste 0 -- -- 70
2020-05-06 13:00:00 25.2 12 Sudoeste 18 Sudoeste 0 -- -- 66
2020-05-06 12:00:00 26 9 Sur 28 Nordeste 0 -- -- 64
2020-05-06 11:00:00 24.7 12 Nordeste 22 Nordeste 0 -- -- 56
2020-05-06 10:00:00 21.4 13 Nordeste 19 Nordeste 0 -- -- 79
2020-05-06 09:00:00 17.5 13 Nordeste 21 Nordeste 0 -- -- 100
2020-05-06 08:00:00 15.3 8 Nordeste 11 Nordeste 0 -- -- 100
2020-05-06 07:00:00 15 6 Norte 8 Norte 0 -- -- 99
2020-05-06 06:00:00 14.6 0 Calma 4 Sudeste 0 -- -- 99
2020-05-06 05:00:00 14.7 2 Sudeste 4 Nordeste 0 -- -- 98
2020-05-06 04:00:00 15.5 0 Calma 4 Sur 0 -- -- 98
2020-05-06 03:00:00 16.4 2 Sur 8 Norte 0 -- -- 97
2020-05-06 02:00:00 16 5 Norte 7 Norte 0 -- -- 95
2020-05-06 01:00:00 15.9 4 Sudeste 7 Sudeste 0 -- -- 94
2020-05-06 00:00:00 17 3 Sudeste 6 Sudeste 0 -- -- 92
2020-05-05 23:00:00 18.6 3 Este 7 Sudeste 0 -- -- 91
2020-05-05 22:00:00 20 2 Nordeste 8 Este 0 -- -- 89
2020-05-05 21:00:00 20.7 4 Sudeste 9 Oeste 0 -- -- 84
2020-05-05 20:00:00 22 7 Oeste 14 Oeste 0 -- -- 77
2020-05-05 19:00:00 22.7 10 Sudoeste 17 Oeste 0 -- -- 75
2020-05-05 18:00:00 24.8 10 Sudeste 21 Sur 0 -- -- 70
2020-05-05 17:00:00 26 11 Sur 24 Este 0 -- -- 66
2020-05-05 16:00:00 26.2 17 Sudeste 26 Sudeste 0 -- -- 63
2020-05-05 15:00:00 26.9 13 Sudoeste 23 Oeste 0 -- -- 63
2020-05-05 14:00:00 26.7 6 Oeste 18 Oeste 0 -- -- 63
2020-05-05 13:00:00 26.1 10 Sudoeste 18 Oeste 0 -- -- 61
2020-05-05 12:00:00 25.2 8 Sudeste 21 Sudeste 0 -- -- 62
2020-05-05 11:00:00 24.2 10 Sudeste 20 Este 0 -- -- 63
2020-05-05 10:00:00 22.9 12 Este 19 Este 0 -- -- 68
2020-05-05 09:00:00 19.7 5 Nordeste 9 Nordeste 0 -- -- 82
2020-05-05 08:00:00 16.4 6 Nordeste 15 Nordeste 0 -- -- 89
2020-05-05 07:00:00 15.3 10 Nordeste 18 Norte 0 -- -- 91
2020-05-05 06:00:00 15.7 10 Nordeste 16 Nordeste 0 -- -- 89
2020-05-05 05:00:00 16.2 8 Nordeste 13 Nordeste 0 -- -- 87
2020-05-05 04:00:00 16.2 6 Nordeste 10 Nordeste 0 -- -- 88
2020-05-05 03:00:00 15.7 6 Norte 10 Nordeste 0 -- -- 89
2020-05-05 02:00:00 16 2 Norte 9 Nordeste 0 -- -- 90
2020-05-05 01:00:00 17.1 8 Nordeste 11 Este 0 -- -- 89
2020-05-05 00:00:00 18.4 7 Este 15 Este 0 -- -- 84
2020-05-04 23:00:00 19.1 6 Este 15 Este 0 -- -- 80
2020-05-04 22:00:00 19.5 11 Este 21 Este 0 -- -- 77
2020-05-04 21:00:00 20.2 14 Sudeste 28 Sudeste 0 -- -- 74
2020-05-04 20:00:00 22.7 13 Este 22 Sudeste 0 -- -- 65
2020-05-04 19:00:00 24 14 Sudeste 24 Sudeste 0 -- -- 59
2020-05-04 18:00:00 24.6 14 Sudeste 27 Sudeste 0 -- -- 59
2020-05-04 17:00:00 25.2 16 Sudeste 28 Sudeste 0 -- -- 55
2020-05-04 16:00:00 25.6 20 Sudeste 35 Sudeste 0 -- -- 55
2020-05-04 15:00:00 25.7 18 Sudeste 35 Sudeste 0 -- -- 55
2020-05-04 14:00:00 25.8 18 Sudeste 27 Sudeste 0 -- -- 55
2020-05-04 13:00:00 25.7 15 Sudeste 27 Sudeste 0 -- -- 50
2020-05-04 12:00:00 25.6 17 Sudeste 27 Este 0 -- -- 54
2020-05-04 11:00:00 24.3 15 Sudeste 21 Sudeste 0 -- -- 58
2020-05-04 10:00:00 22.8 11 Sudeste 21 Sudeste 0 -- -- 67
2020-05-04 09:00:00 19.4 2 Norte 5 Norte 0 -- -- 91
2020-05-04 08:00:00 15.3 3 Norte 6 Norte 0 -- -- 97
2020-05-04 07:00:00 11.9 0 Calma 4 Norte 0 -- -- 97
2020-05-04 06:00:00 12.3 0 Calma 4 Norte 0 -- -- 96
2020-05-04 05:00:00 12.4 0 Calma 3 Sur 0 -- -- 96
2020-05-04 04:00:00 12.7 0 Calma 3 Norte 0 -- -- 95
2020-05-04 03:00:00 13.2 0 Calma 2 Sudeste 0 -- -- 95
2020-05-04 02:00:00 13.9 0 Calma 4 Nordeste 0 -- -- 94
2020-05-04 01:00:00 14.7 0 Calma 4 Nordeste 0 -- -- 93
2020-05-04 00:00:00 16.2 0 Calma 4 Nordeste 0 -- -- 92
2020-05-03 23:00:00 17.9 0 Calma 4 Sudeste 0 -- -- 92
2020-05-03 22:00:00 18.8 3 Este 6 Este 0 -- -- 91
2020-05-03 21:00:00 19.7 6 Sudeste 20 Sudeste 0 -- -- 86
2020-05-03 20:00:00 21.4 14 Sudeste 23 Sudeste 0 -- -- 79
2020-05-03 19:00:00 22.6 17 Sudeste 29 Este 0 -- -- 73
2020-05-03 18:00:00 23.7 19 Sudeste 28 Sudeste 0 -- -- 65
2020-05-03 17:00:00 25.2 19 Sudeste 29 Sudeste 0 -- -- 58
2020-05-03 16:00:00 26.1 17 Sudeste 32 Sudeste 0 -- -- 54
2020-05-03 15:00:00 26.8 17 Sudeste 28 Sudeste 0 -- -- 48
2020-05-03 14:00:00 26.4 13 Sudeste 27 Este 0 -- -- 54
2020-05-03 13:00:00 26.3 16 Sudeste 23 Sudeste 0 -- -- 51
2020-05-03 12:00:00 25.7 15 Sudeste 28 Sudeste 0 -- -- 54
2020-05-03 11:00:00 25.7 16 Este 23 Este 0 -- -- 55
2020-05-03 10:00:00 22.4 5 Noroeste 8 Noroeste 0 -- -- 73
2020-05-03 09:00:00 19 5 Norte 11 Norte 0 -- -- 85
2020-05-03 08:00:00 16.1 4 Sudeste 6 Este 0 -- -- 98
2020-05-03 07:00:00 14.3 0 Calma 4 Sudeste 0 -- -- 97
2020-05-03 06:00:00 13.4 0 Calma 4 Sur 0 -- -- 97
2020-05-03 05:00:00 13.2 0 Calma 7 Norte 0 -- -- 96
2020-05-03 04:00:00 13.7 0 Calma 4 Sudeste 0 -- -- 96
2020-05-03 03:00:00 13.9 3 Sudeste 5 Sudeste 0 -- -- 96
2020-05-03 02:00:00 14.4 0 Calma 6 Sudeste 0 -- -- 95
2020-05-03 01:00:00 15.1 3 Sudeste 5 Sudeste 0 -- -- 94
2020-05-03 00:00:00 15.9 3 Sudeste 4 Sudeste 0 -- -- 94